createdAt,value
2022-12-31T00:01:19.371Z,3.20
2022-12-31T00:03:48.507Z,3.20
2022-12-31T00:06:21.250Z,3.20
2022-12-31T00:08:51.075Z,3.20
2022-12-31T00:11:39.011Z,3.20
2022-12-31T00:14:08.071Z,3.10
2022-12-31T00:16:40.675Z,3.10
2022-12-31T00:19:11.757Z,3.10
2022-12-31T00:21:40.917Z,3.00
2022-12-31T00:24:09.969Z,3.00
2022-12-31T00:26:38.670Z,2.90
2022-12-31T00:29:07.678Z,2.90
2022-12-31T00:31:40.276Z,2.90
2022-12-31T00:34:09.083Z,2.80
2022-12-31T00:36:39.906Z,2.80
2022-12-31T00:39:09.828Z,2.80
2022-12-31T00:41:38.897Z,2.80
2022-12-31T00:44:07.831Z,2.70
2022-12-31T00:49:05.501Z,2.70
2022-12-31T00:51:34.101Z,2.70
2022-12-31T00:54:02.639Z,2.70
2022-12-31T00:56:32.606Z,2.70
2022-12-31T00:59:02.931Z,2.80
2022-12-31T01:01:34.201Z,2.80
2022-12-31T01:04:06.968Z,2.80
2022-12-31T01:06:36.293Z,2.80
2022-12-31T01:09:06.140Z,2.70
2022-12-31T01:11:35.094Z,2.70
2022-12-31T01:14:05.929Z,2.70
2022-12-31T01:16:39.950Z,2.70
2022-12-31T01:19:13.617Z,2.80
2022-12-31T01:21:43.895Z,2.70
2022-12-31T01:24:13.280Z,2.70
2022-12-31T01:26:42.076Z,2.70
2022-12-31T01:29:11.898Z,2.80
2022-12-31T01:31:40.494Z,2.70
2022-12-31T01:34:11.066Z,2.70
2022-12-31T01:36:40.257Z,2.70
2022-12-31T01:39:10.952Z,2.70
2022-12-31T01:41:41.893Z,2.70
2022-12-31T01:44:48.027Z,2.70
2022-12-31T01:47:21.444Z,2.60
2022-12-31T01:49:55.814Z,2.70
2022-12-31T01:52:28.589Z,2.60
2022-12-31T01:55:02.425Z,2.70
2022-12-31T01:57:32.385Z,2.70
2022-12-31T02:00:03.045Z,2.60
2022-12-31T02:02:33.591Z,2.60
2022-12-31T02:05:07.097Z,2.60
2022-12-31T02:07:35.818Z,2.60
2022-12-31T02:10:05.939Z,2.50
2022-12-31T02:12:34.696Z,2.60
2022-12-31T02:15:03.422Z,2.60
2022-12-31T02:17:36.600Z,2.60
2022-12-31T02:20:28.810Z,2.60
2022-12-31T02:23:46.368Z,2.50
2022-12-31T02:26:43.420Z,2.50
2022-12-31T02:29:40.249Z,2.50
2022-12-31T02:32:17.613Z,2.60
2022-12-31T02:34:50.093Z,2.50
2022-12-31T02:37:21.324Z,2.50
2022-12-31T02:39:50.758Z,2.50
2022-12-31T02:42:19.384Z,2.50
2022-12-31T02:44:47.991Z,2.50
2022-12-31T02:47:28.230Z,2.40
2022-12-31T02:50:12.075Z,2.50
2022-12-31T02:52:50.418Z,2.50
2022-12-31T02:55:27.226Z,2.50
2022-12-31T02:58:01.460Z,2.40
2022-12-31T03:00:50.931Z,2.50
2022-12-31T03:03:40.838Z,2.50
2022-12-31T03:06:10.624Z,2.50
2022-12-31T03:08:56.958Z,2.40
2022-12-31T03:11:39.550Z,2.50
2022-12-31T03:14:08.342Z,2.50
2022-12-31T03:16:37.244Z,2.50
2022-12-31T03:19:25.109Z,2.50
2022-12-31T03:22:11.253Z,2.50
2022-12-31T03:24:57.117Z,2.50
2022-12-31T03:27:25.937Z,2.50
2022-12-31T03:29:54.607Z,2.50
2022-12-31T03:32:23.224Z,2.40
2022-12-31T03:34:53.147Z,2.50
2022-12-31T03:37:21.729Z,2.50
2022-12-31T03:39:51.413Z,2.50
2022-12-31T03:42:19.726Z,2.50
2022-12-31T03:44:48.412Z,2.40
2022-12-31T03:47:17.059Z,2.50
2022-12-31T03:49:45.840Z,2.50
2022-12-31T03:52:15.846Z,2.50
2022-12-31T03:54:44.389Z,2.50
2022-12-31T03:57:13.474Z,2.50
2022-12-31T03:59:42.237Z,2.50
2022-12-31T04:02:10.972Z,2.50
2022-12-31T04:04:39.733Z,2.40
2022-12-31T04:07:08.251Z,2.40
2022-12-31T04:09:38.346Z,2.40
2022-12-31T04:12:07.763Z,2.40
2022-12-31T04:14:36.377Z,2.40
2022-12-31T04:19:51.502Z,2.50
2022-12-31T04:22:20.326Z,2.50
2022-12-31T04:24:50.310Z,2.50
2022-12-31T04:27:18.919Z,2.40
2022-12-31T04:29:47.592Z,2.50
2022-12-31T04:32:16.166Z,2.40
2022-12-31T04:34:44.979Z,2.40
2022-12-31T04:37:13.560Z,2.50
2022-12-31T04:39:42.286Z,2.50
2022-12-31T04:42:12.640Z,2.50
2022-12-31T04:44:41.241Z,2.50
2022-12-31T04:47:09.793Z,2.40
2022-12-31T04:49:38.534Z,2.50
2022-12-31T04:52:07.291Z,2.40
2022-12-31T04:54:36.086Z,2.50
2022-12-31T04:57:06.536Z,2.50
2022-12-31T04:59:36.728Z,2.50
2022-12-31T05:02:05.567Z,2.50
2022-12-31T05:04:34.212Z,2.50
2022-12-31T05:07:02.791Z,2.50
2022-12-31T05:09:31.596Z,2.60
2022-12-31T05:12:00.151Z,2.60
2022-12-31T05:14:28.823Z,2.70
2022-12-31T05:16:59.469Z,2.70
2022-12-31T05:19:28.165Z,2.70
2022-12-31T05:22:14.325Z,2.60
2022-12-31T05:24:43.201Z,2.60
2022-12-31T05:27:11.764Z,2.60
2022-12-31T05:29:40.385Z,2.70
2022-12-31T05:32:10.485Z,2.70
2022-12-31T05:34:39.077Z,2.70
2022-12-31T05:37:07.721Z,2.70
2022-12-31T05:39:37.910Z,2.70
2022-12-31T05:42:06.659Z,2.80
2022-12-31T05:44:35.369Z,2.80
2022-12-31T05:47:04.428Z,2.80
2022-12-31T05:49:34.808Z,2.80
2022-12-31T05:52:03.545Z,2.80
2022-12-31T05:54:32.154Z,2.80
2022-12-31T05:57:00.812Z,2.90
2022-12-31T05:59:30.619Z,2.90
2022-12-31T06:01:58.881Z,2.90
2022-12-31T06:04:27.612Z,2.90
2022-12-31T06:06:57.683Z,3.00
2022-12-31T06:09:26.609Z,3.00
2022-12-31T06:11:55.458Z,3.00
2022-12-31T06:14:24.203Z,3.00
2022-12-31T06:16:52.728Z,3.10
2022-12-31T06:19:21.464Z,3.10
2022-12-31T06:21:50.208Z,3.20
2022-12-31T06:24:20.346Z,3.20
2022-12-31T06:26:48.935Z,3.20
2022-12-31T06:29:18.180Z,3.20
2022-12-31T06:31:48.633Z,3.20
2022-12-31T06:34:19.154Z,3.20
2022-12-31T06:36:47.858Z,3.30
2022-12-31T06:39:16.476Z,3.20
2022-12-31T06:41:46.467Z,3.30
2022-12-31T06:44:15.632Z,3.30
2022-12-31T06:46:44.239Z,3.40
2022-12-31T06:49:13.186Z,3.40
2022-12-31T06:51:42.554Z,3.30
2022-12-31T06:54:11.114Z,3.40
2022-12-31T06:56:40.324Z,3.40
2022-12-31T06:59:23.701Z,3.40
2022-12-31T07:02:05.149Z,3.30
2022-12-31T07:05:02.473Z,3.30
2022-12-31T07:07:35.804Z,3.30
2022-12-31T07:10:14.377Z,3.30
2022-12-31T07:13:06.386Z,3.30
2022-12-31T07:15:52.449Z,3.30
2022-12-31T07:18:30.875Z,3.20
2022-12-31T07:21:01.556Z,3.20
2022-12-31T07:23:30.804Z,3.20
2022-12-31T07:26:06.360Z,3.20
2022-12-31T07:28:46.182Z,3.20
2022-12-31T07:31:26.469Z,3.20
2022-12-31T07:34:00.978Z,3.20
2022-12-31T07:36:54.926Z,3.20
2022-12-31T07:39:33.267Z,3.20
2022-12-31T07:42:09.138Z,3.20
2022-12-31T07:45:12.829Z,3.20
2022-12-31T07:47:43.518Z,3.20
2022-12-31T07:50:16.646Z,3.10
2022-12-31T07:52:46.181Z,3.20
2022-12-31T07:55:14.987Z,3.10
2022-12-31T07:57:53.435Z,3.10
2022-12-31T08:00:27.316Z,3.10
2022-12-31T08:03:09.594Z,3.10
2022-12-31T08:06:09.009Z,3.20
2022-12-31T08:08:46.863Z,3.20
2022-12-31T08:11:20.474Z,3.20
2022-12-31T08:13:49.397Z,3.20
2022-12-31T08:16:18.547Z,3.20
2022-12-31T08:18:50.233Z,3.20
2022-12-31T08:21:35.230Z,3.20
2022-12-31T08:24:14.850Z,3.30
2022-12-31T08:26:52.603Z,3.30
2022-12-31T08:29:35.643Z,3.20
2022-12-31T08:32:13.556Z,3.20
2022-12-31T08:34:53.805Z,3.20
2022-12-31T08:37:32.365Z,3.30
2022-12-31T08:40:16.543Z,3.30
2022-12-31T08:43:01.693Z,3.30
2022-12-31T08:45:37.984Z,3.30
2022-12-31T08:48:19.913Z,3.30
2022-12-31T08:50:50.583Z,3.30
2022-12-31T08:53:19.737Z,3.40
2022-12-31T08:55:51.415Z,3.40
2022-12-31T08:58:35.668Z,3.40
2022-12-31T09:01:07.360Z,3.40
2022-12-31T09:03:59.905Z,3.40
2022-12-31T09:06:34.852Z,3.40
2022-12-31T09:09:11.856Z,3.40
2022-12-31T09:11:52.629Z,3.40
2022-12-31T09:14:41.743Z,3.40
2022-12-31T09:17:21.279Z,3.40
2022-12-31T09:19:51.490Z,3.50
2022-12-31T09:22:22.197Z,3.40
2022-12-31T09:24:51.495Z,3.40
2022-12-31T09:27:27.963Z,3.40
2022-12-31T09:30:06.060Z,3.40
2022-12-31T09:32:42.768Z,3.40
2022-12-31T09:35:20.584Z,3.40
2022-12-31T09:37:52.539Z,3.40
2022-12-31T09:40:52.125Z,3.50
2022-12-31T09:44:00.919Z,3.50
2022-12-31T09:47:12.525Z,3.50
2022-12-31T09:50:07.512Z,3.50
2022-12-31T09:52:48.803Z,3.50
2022-12-31T09:55:35.553Z,3.50
2022-12-31T09:58:20.240Z,3.50
2022-12-31T10:00:53.689Z,3.50
2022-12-31T10:03:44.226Z,3.60
2022-12-31T10:06:23.441Z,3.60
2022-12-31T10:09:22.546Z,3.60
2022-12-31T10:12:17.673Z,3.70
2022-12-31T10:15:06.752Z,3.60
2022-12-31T10:17:54.230Z,3.70
2022-12-31T10:20:45.662Z,3.70
2022-12-31T10:23:40.154Z,3.60
2022-12-31T10:26:35.456Z,3.70
2022-12-31T10:29:19.409Z,3.70
2022-12-31T10:32:00.956Z,3.70
2022-12-31T10:34:39.473Z,3.90
2022-12-31T10:37:12.022Z,3.70
2022-12-31T10:39:52.065Z,3.70
2022-12-31T10:43:02.081Z,3.80
2022-12-31T10:46:00.262Z,3.80
2022-12-31T10:49:00.489Z,3.80
2022-12-31T10:52:35.566Z,3.90
2022-12-31T10:55:54.445Z,3.90
2022-12-31T10:58:56.895Z,3.90
2022-12-31T11:01:40.309Z,4.00
2022-12-31T11:04:56.995Z,4.00
2022-12-31T11:07:51.921Z,4.00
2022-12-31T11:10:46.975Z,4.00
2022-12-31T11:13:57.344Z,4.00
2022-12-31T11:16:47.838Z,4.00
2022-12-31T11:19:26.183Z,4.00
2022-12-31T11:22:14.089Z,4.00
2022-12-31T11:28:05.464Z,4.10
2022-12-31T11:30:45.915Z,4.00
2022-12-31T11:33:32.307Z,4.00
2022-12-31T11:39:24.576Z,4.10
2022-12-31T11:42:09.084Z,4.10
2022-12-31T11:44:50.662Z,4.10
2022-12-31T11:47:49.873Z,4.10
2022-12-31T11:50:36.520Z,4.10
2022-12-31T11:53:24.478Z,4.10
2022-12-31T11:56:04.427Z,4.00
2022-12-31T11:58:33.513Z,4.10
2022-12-31T12:01:27.479Z,4.10
2022-12-31T12:03:56.519Z,4.10
2022-12-31T12:06:30.653Z,4.10
2022-12-31T12:09:05.736Z,4.10
2022-12-31T12:11:38.686Z,4.20
2022-12-31T12:14:21.053Z,4.20
2022-12-31T12:17:00.697Z,4.20
2022-12-31T12:19:35.194Z,4.20
2022-12-31T12:22:14.410Z,4.20
2022-12-31T12:24:54.843Z,4.20
2022-12-31T12:27:25.995Z,4.30
2022-12-31T12:29:55.924Z,4.20
2022-12-31T12:32:26.949Z,4.20
2022-12-31T12:34:55.885Z,4.20
2022-12-31T12:37:32.466Z,4.20
2022-12-31T12:40:02.741Z,4.20
2022-12-31T12:42:31.850Z,4.30
2022-12-31T12:45:05.521Z,4.30
2022-12-31T12:47:35.744Z,4.30
2022-12-31T12:50:07.269Z,4.30
2022-12-31T12:53:00.538Z,4.30
2022-12-31T12:55:39.090Z,4.40
2022-12-31T12:58:19.284Z,4.40
2022-12-31T13:00:54.083Z,4.40
2022-12-31T13:07:26.005Z,4.50
2022-12-31T13:10:17.054Z,4.50
2022-12-31T13:13:22.809Z,4.50
2022-12-31T13:15:47.669Z,4.50
2022-12-31T13:18:34.204Z,4.40
2022-12-31T13:21:09.791Z,4.50
2022-12-31T13:23:44.478Z,4.50
2022-12-31T13:26:22.506Z,4.50
2022-12-31T13:28:53.888Z,4.50
2022-12-31T13:31:27.791Z,4.60
2022-12-31T13:34:00.600Z,4.60
2022-12-31T13:36:32.834Z,4.50
2022-12-31T13:39:09.305Z,4.60
2022-12-31T13:41:43.918Z,4.60
2022-12-31T13:44:18.157Z,4.60
2022-12-31T13:46:50.425Z,4.60
2022-12-31T13:49:25.664Z,4.60
2022-12-31T13:51:59.298Z,4.60
2022-12-31T13:54:37.865Z,4.60
2022-12-31T13:57:20.377Z,4.60
2022-12-31T13:59:53.902Z,4.60
2022-12-31T14:02:37.674Z,4.70
2022-12-31T14:05:15.542Z,4.70
2022-12-31T14:07:49.879Z,4.70
2022-12-31T14:10:23.171Z,4.70
2022-12-31T14:12:59.211Z,4.70
2022-12-31T14:15:33.694Z,4.60
2022-12-31T14:18:07.979Z,4.70
2022-12-31T14:20:48.205Z,4.70
2022-12-31T14:23:25.840Z,4.70
2022-12-31T14:25:58.319Z,4.70
2022-12-31T14:28:32.817Z,4.70
2022-12-31T14:31:12.512Z,4.80
2022-12-31T14:33:50.190Z,4.80
2022-12-31T14:36:29.274Z,4.80
2022-12-31T14:39:18.931Z,4.80
2022-12-31T14:41:53.423Z,4.80
2022-12-31T14:44:35.912Z,4.90
2022-12-31T14:47:19.053Z,4.90
2022-12-31T14:49:54.455Z,4.90
2022-12-31T14:52:25.504Z,4.90
2022-12-31T14:55:22.248Z,5.00
2022-12-31T15:00:52.545Z,4.90
2022-12-31T15:03:27.071Z,4.90
2022-12-31T15:06:03.128Z,5.00
2022-12-31T15:08:48.423Z,5.00
2022-12-31T15:11:30.051Z,5.00
2022-12-31T15:14:20.480Z,5.00
2022-12-31T15:17:00.189Z,5.10
2022-12-31T15:19:43.621Z,5.10
2022-12-31T15:22:31.759Z,5.10
2022-12-31T15:25:01.371Z,5.00
2022-12-31T15:27:35.043Z,5.00
2022-12-31T15:32:51.932Z,5.00
2022-12-31T15:35:30.695Z,5.00
2022-12-31T15:38:01.403Z,5.00
2022-12-31T15:40:30.927Z,5.00
2022-12-31T15:43:04.512Z,5.00
2022-12-31T15:45:38.029Z,5.00
2022-12-31T15:48:15.614Z,5.00
2022-12-31T15:50:47.447Z,5.00
2022-12-31T15:53:27.680Z,5.10
2022-12-31T15:55:59.502Z,5.10
2022-12-31T15:58:33.015Z,5.10
2022-12-31T16:01:11.143Z,5.10
2022-12-31T16:03:45.640Z,5.10
2022-12-31T16:06:16.793Z,5.10
2022-12-31T16:08:47.920Z,5.10
2022-12-31T16:11:17.230Z,5.10
2022-12-31T16:13:52.172Z,5.20
2022-12-31T16:16:23.589Z,5.20
2022-12-31T16:18:54.529Z,5.20
2022-12-31T16:21:27.943Z,5.20
2022-12-31T16:23:58.847Z,5.20
2022-12-31T16:26:34.048Z,5.20
2022-12-31T16:29:05.489Z,5.20
2022-12-31T16:31:34.419Z,5.20
2022-12-31T16:34:16.198Z,5.20
2022-12-31T16:36:55.310Z,5.10
2022-12-31T16:39:28.603Z,5.20
2022-12-31T16:42:11.009Z,5.20
2022-12-31T16:44:39.647Z,5.20
2022-12-31T16:47:10.640Z,5.20
2022-12-31T16:49:43.022Z,5.20
2022-12-31T16:52:26.245Z,5.30
2022-12-31T16:55:18.839Z,5.20
2022-12-31T16:57:54.080Z,5.20
2022-12-31T17:00:25.127Z,5.20
2022-12-31T17:03:05.229Z,5.20
2022-12-31T17:05:37.773Z,5.30
2022-12-31T17:08:24.683Z,5.20
2022-12-31T17:10:56.588Z,5.20
2022-12-31T17:13:30.285Z,5.30
2022-12-31T17:16:00.533Z,5.30
2022-12-31T17:18:44.911Z,5.30
2022-12-31T17:21:15.333Z,5.30
2022-12-31T17:23:46.868Z,5.30
2022-12-31T17:26:23.367Z,5.30
2022-12-31T17:28:54.024Z,5.30
2022-12-31T17:31:35.383Z,5.30
2022-12-31T17:34:24.244Z,5.30
2022-12-31T17:37:18.329Z,5.30
2022-12-31T17:39:51.814Z,5.30
2022-12-31T17:42:32.650Z,5.30
2022-12-31T17:45:04.393Z,5.30
2022-12-31T17:47:38.500Z,5.30
2022-12-31T17:50:22.219Z,5.40
2022-12-31T17:52:53.775Z,5.40
2022-12-31T17:55:22.666Z,5.40
2022-12-31T17:57:53.801Z,5.40
2022-12-31T18:00:26.836Z,5.40
2022-12-31T18:02:55.867Z,5.40
2022-12-31T18:05:25.769Z,5.40
2022-12-31T18:07:57.016Z,5.40
2022-12-31T18:10:27.504Z,5.40
2022-12-31T18:12:56.418Z,5.40
2022-12-31T18:15:26.031Z,5.50
2022-12-31T18:17:54.650Z,5.50
2022-12-31T18:20:23.781Z,5.50
2022-12-31T18:22:53.041Z,5.50
2022-12-31T18:25:24.619Z,5.50
2022-12-31T18:27:53.987Z,5.50
2022-12-31T18:30:23.520Z,5.50
2022-12-31T18:32:52.046Z,5.50
2022-12-31T18:38:15.631Z,5.50
2022-12-31T18:40:50.021Z,5.50
2022-12-31T18:43:20.243Z,5.50
2022-12-31T18:45:49.598Z,5.50
2022-12-31T18:48:18.544Z,5.50
2022-12-31T18:50:49.384Z,5.50
2022-12-31T18:53:20.608Z,5.50
2022-12-31T18:55:53.801Z,5.50
2022-12-31T18:58:23.764Z,5.60
2022-12-31T19:00:53.407Z,5.50
2022-12-31T19:03:22.844Z,5.50
2022-12-31T19:05:52.880Z,5.50
2022-12-31T19:08:23.253Z,5.50
2022-12-31T19:10:54.163Z,5.50
2022-12-31T19:13:23.415Z,5.60
2022-12-31T19:15:53.366Z,5.60
2022-12-31T19:18:22.383Z,5.60
2022-12-31T19:20:52.516Z,5.60
2022-12-31T19:23:22.852Z,5.60
2022-12-31T19:25:53.349Z,5.50
2022-12-31T19:28:24.472Z,5.50
2022-12-31T19:30:54.242Z,5.60
2022-12-31T19:33:22.559Z,5.60
2022-12-31T19:35:51.245Z,5.60
2022-12-31T19:38:22.975Z,5.60
2022-12-31T19:40:54.949Z,5.60
2022-12-31T19:43:25.090Z,5.60
2022-12-31T19:45:54.431Z,5.60
2022-12-31T19:48:32.323Z,5.60
2022-12-31T19:51:01.759Z,5.60
2022-12-31T19:53:31.627Z,5.60
2022-12-31T19:56:01.663Z,5.60
2022-12-31T19:58:31.644Z,5.50
2022-12-31T20:01:03.293Z,5.60
2022-12-31T20:03:33.928Z,5.60
2022-12-31T20:06:04.622Z,5.60
2022-12-31T20:08:33.859Z,5.60
2022-12-31T20:11:12.107Z,5.60
2022-12-31T20:13:41.861Z,5.60
2022-12-31T20:16:11.622Z,5.70
2022-12-31T20:18:42.780Z,5.70
2022-12-31T20:21:12.962Z,5.70
2022-12-31T20:23:42.163Z,5.70
2022-12-31T20:26:13.699Z,5.70
2022-12-31T20:28:42.472Z,5.70
2022-12-31T20:31:13.110Z,5.70
2022-12-31T20:33:42.318Z,5.80
2022-12-31T20:36:14.099Z,5.80
2022-12-31T20:38:43.032Z,5.80
2022-12-31T20:41:15.012Z,5.90
2022-12-31T20:43:44.132Z,5.90
2022-12-31T20:46:16.125Z,5.90
2022-12-31T20:48:45.980Z,6.00
2022-12-31T20:51:15.713Z,5.90
2022-12-31T20:53:48.998Z,5.90
2022-12-31T20:56:19.761Z,5.90
2022-12-31T20:58:48.984Z,5.90
2022-12-31T21:01:18.420Z,5.90
2022-12-31T21:04:04.917Z,5.90
2022-12-31T21:06:34.795Z,6.00
2022-12-31T21:09:05.397Z,6.00
2022-12-31T21:11:53.070Z,6.10
2022-12-31T21:14:22.050Z,6.20
2022-12-31T21:16:51.000Z,6.30
2022-12-31T21:19:19.773Z,6.30
2022-12-31T21:21:49.921Z,6.20
2022-12-31T21:24:23.626Z,6.20
2022-12-31T21:26:56.707Z,6.30
2022-12-31T21:29:27.859Z,6.30
2022-12-31T21:31:59.959Z,6.20
2022-12-31T21:34:28.500Z,6.20
2022-12-31T21:36:57.174Z,6.30
2022-12-31T21:39:25.736Z,6.20
2022-12-31T21:41:55.738Z,6.20
2022-12-31T21:44:26.330Z,6.20
2022-12-31T21:47:39.825Z,6.30
2022-12-31T21:50:10.193Z,6.30
2022-12-31T21:52:38.758Z,6.30
2022-12-31T21:55:26.370Z,6.30
2022-12-31T22:01:03.210Z,6.30
2022-12-31T22:03:32.350Z,6.30
2022-12-31T22:06:03.105Z,6.30
2022-12-31T22:08:32.748Z,6.30
2022-12-31T22:11:01.498Z,6.30
2022-12-31T22:13:31.512Z,6.30
2022-12-31T22:16:05.376Z,6.30
2022-12-31T22:18:38.707Z,6.30
2022-12-31T22:21:15.733Z,6.40
2022-12-31T22:23:47.357Z,6.30
2022-12-31T22:26:17.969Z,6.30
2022-12-31T22:28:48.404Z,6.40
2022-12-31T22:31:18.922Z,6.40
2022-12-31T22:33:47.940Z,6.40
2022-12-31T22:36:18.483Z,6.40
2022-12-31T22:38:48.216Z,6.30
2022-12-31T22:41:17.349Z,6.30
2022-12-31T22:43:50.150Z,6.40
2022-12-31T22:46:20.457Z,6.50
2022-12-31T22:48:49.926Z,6.50
2022-12-31T22:51:19.956Z,6.50
2022-12-31T22:53:49.136Z,6.50
2022-12-31T22:56:19.371Z,6.40
2022-12-31T22:58:49.503Z,6.40
2022-12-31T23:01:20.531Z,6.40
2022-12-31T23:03:51.257Z,6.40
2022-12-31T23:06:20.776Z,6.40
2022-12-31T23:09:03.924Z,6.40
2022-12-31T23:11:33.642Z,6.40
2022-12-31T23:14:20.976Z,6.40
2022-12-31T23:17:31.065Z,6.40
2022-12-31T23:20:12.672Z,6.40
2022-12-31T23:22:58.757Z,6.40
2022-12-31T23:25:27.339Z,6.40
2022-12-31T23:27:55.900Z,6.50
2022-12-31T23:30:25.943Z,6.40
2022-12-31T23:32:54.539Z,6.40
2022-12-31T23:35:23.356Z,6.50
2022-12-31T23:37:51.987Z,6.50
2022-12-31T23:40:21.860Z,6.50
2022-12-31T23:42:51.197Z,6.50
2022-12-31T23:45:19.684Z,6.50
2022-12-31T23:47:49.710Z,6.60
2022-12-31T23:50:18.571Z,6.60
2022-12-31T23:52:47.059Z,6.60
2022-12-31T23:55:15.674Z,6.60
2022-12-31T23:57:44.525Z,6.60
